Time,TemperatureF,DewpointF,PressureIn,WindDirection,WindDirectionDegrees,WindSpeedMPH,WindSpeedGustMPH,Humidity,HourlyPrecipIn,Conditions,Clouds,dailyrainin,SolarRadiationWatts/m^2,SoftwareType,DateUTC
2017-02-26 00:04:00,48.4,44.8,29.55,SW,227,6.7,9.8,87,0.00,,,0.00,0.00,Weather logger V2.2.,2017-02-26 00:04:00,
2017-02-26 00:09:00,48.2,44.6,29.55,South,171,2.5,4.9,87,0.00,,,0.00,0.00,Weather logger V2.2.,2017-02-26 00:09:00,
2017-02-26 00:14:00,48.4,44.8,29.55,SSW,204,2.5,2.5,87,0.00,,,0.00,0.00,Weather logger V2.2.,2017-02-26 00:14:00,
2017-02-26 00:19:00,48.4,44.8,29.54,SW,232,5.6,7.4,87,0.00,,,0.00,0.00,Weather logger V2.2.,2017-02-26 00:19:00,
2017-02-26 00:24:00,48.4,44.8,29.55,WSW,247,6.5,9.8,87,0.00,,,0.00,0.00,Weather logger V2.2.,2017-02-26 00:24:00,
2017-02-26 00:29:00,48.4,44.4,29.55,SSW,203,6.5,7.4,86,0.00,,,0.00,0.00,Weather logger V2.2.,2017-02-26 00:29:00,
2017-02-26 00:35:00,48.4,44.8,29.55,East,96,2.7,4.9,87,0.00,,,0.00,0.00,Weather logger V2.2.,2017-02-26 00:35:00,
2017-02-26 00:40:00,48.4,44.8,29.55,SW,219,2.9,4.9,87,0.00,,,0.00,0.00,Weather logger V2.2.,2017-02-26 00:40:00,
2017-02-26 00:45:00,48.4,44.8,29.55,SW,225,11.9,17.5,87,0.00,,,0.00,0.00,Weather logger V2.2.,2017-02-26 00:45:00,
2017-02-26 00:50:00,48.4,44.8,29.55,SSE,167,1.8,4.9,87,0.00,,,0.00,0.00,Weather logger V2.2.,2017-02-26 00:50:00,
2017-02-26 00:55:00,48.4,44.8,29.55,WSW,241,1.1,4.9,87,0.00,,,0.00,0.00,Weather logger V2.2.,2017-02-26 00:55:00,
2017-02-26 01:00:00,48.4,44.8,29.54,SW,227,2.9,4.9,87,0.00,,,0.00,0.00,Weather logger V2.2.,2017-02-26 01:00:00,
2017-02-26 01:05:00,48.4,45.0,29.54,NE,56,1.8,2.5,88,0.00,,,0.00,0.00,Weather logger V2.2.,2017-02-26 01:05:00,
2017-02-26 01:10:00,48.4,45.0,29.54,SSW,203,4.5,7.4,88,0.00,,,0.00,0.00,Weather logger V2.2.,2017-02-26 01:10:00,
2017-02-26 01:15:00,48.4,45.7,29.54,SSW,203,5.1,7.4,90,0.00,,,0.00,0.00,Weather logger V2.2.,2017-02-26 01:15:00,
2017-02-26 01:20:00,48.4,45.9,29.54,South,181,3.6,4.9,91,0.00,,,0.00,0.00,Weather logger V2.2.,2017-02-26 01:20:00,
2017-02-26 01:25:00,48.2,45.7,29.54,SW,215,1.8,2.5,91,0.00,,,0.00,0.00,Weather logger V2.2.,2017-02-26 01:25:00,
2017-02-26 01:30:00,48.2,45.7,29.54,SSW,210,1.3,2.5,91,0.00,,,0.00,0.00,Weather logger V2.2.,2017-02-26 01:30:00,
2017-02-26 01:35:00,48.0,45.3,29.53,ESE,121,5.1,7.4,90,0.00,,,0.00,0.00,Weather logger V2.2.,2017-02-26 01:35:00,
2017-02-26 01:40:00,48.0,45.5,29.53,SSW,207,0.2,2.5,91,0.00,,,0.00,0.00,Weather logger V2.2.,2017-02-26 01:40:00,
2017-02-26 01:45:00,48.0,45.5,29.53,West,261,2.0,4.9,91,0.00,,,0.00,0.00,Weather logger V2.2.,2017-02-26 01:45:00,
2017-02-26 01:51:00,48.0,45.5,29.53,SSW,206,6.5,7.4,91,0.00,,,0.00,0.00,Weather logger V2.2.,2017-02-26 01:51:00,
2017-02-26 01:56:00,48.0,45.5,29.52,NE,56,0.0,0.0,91,0.00,,,0.00,0.00,Weather logger V2.2.,2017-02-26 01:56:00,
2017-02-26 01:57:00,48.0,45.5,29.52,SE,129,2.5,4.9,91,0.00,,,0.00,0.00,Weather logger V2.2.,2017-02-26 01:57:00,
2017-02-26 02:03:00,48.0,45.3,29.53,SE,141,3.4,4.9,90,0.00,,,0.00,0.00,Weather logger V2.2.,2017-02-26 02:03:00,
2017-02-26 02:08:00,48.0,45.3,29.52,SSW,203,2.7,4.9,90,0.00,,,0.00,0.00,Weather logger V2.2.,2017-02-26 02:08:00,
2017-02-26 02:13:00,48.2,45.5,29.53,SSW,202,3.6,4.9,90,0.00,,,0.00,0.00,Weather logger V2.2.,2017-02-26 02:13:00,
2017-02-26 02:18:00,48.2,45.5,29.52,South,170,2.7,4.9,90,0.00,,,0.00,0.00,Weather logger V2.2.,2017-02-26 02:18:00,
2017-02-26 02:23:00,48.2,45.5,29.52,SSW,205,2.7,4.9,90,0.00,,,0.00,0.00,Weather logger V2.2.,2017-02-26 02:23:00,
2017-02-26 02:28:00,48.2,45.7,29.52,SSE,167,1.8,2.5,91,0.00,,,0.00,0.00,Weather logger V2.2.,2017-02-26 02:28:00,
2017-02-26 02:33:00,48.4,45.7,29.52,SSE,160,4.5,4.9,90,0.00,,,0.00,0.00,Weather logger V2.2.,2017-02-26 02:33:00,
2017-02-26 02:38:00,48.4,45.7,29.52,SSW,213,3.4,4.9,90,0.00,,,0.00,0.00,Weather logger V2.2.,2017-02-26 02:38:00,
2017-02-26 02:43:00,48.4,45.7,29.52,SW,218,4.0,7.4,90,0.00,,,0.00,0.00,Weather logger V2.2.,2017-02-26 02:43:00,
2017-02-26 02:48:00,48.4,45.7,29.52,SSE,162,2.7,4.9,90,0.00,,,0.00,0.00,Weather logger V2.2.,2017-02-26 02:48:00,
2017-02-26 02:53:00,48.4,45.7,29.52,SW,219,2.7,4.9,90,0.00,,,0.00,0.00,Weather logger V2.2.,2017-02-26 02:53:00,
2017-02-26 02:58:00,48.4,45.7,29.52,East,88,0.9,2.5,90,0.00,,,0.00,0.00,Weather logger V2.2.,2017-02-26 02:58:00,
2017-02-26 03:03:00,48.6,45.9,29.51,North,349,1.1,2.5,90,0.00,,,0.00,0.00,Weather logger V2.2.,2017-02-26 03:03:00,
2017-02-26 03:08:00,48.6,45.9,29.52,South,191,1.3,2.5,90,0.00,,,0.00,0.00,Weather logger V2.2.,2017-02-26 03:08:00,
2017-02-26 03:13:00,48.6,45.9,29.51,SW,229,2.5,2.5,90,0.00,,,0.00,0.00,Weather logger V2.2.,2017-02-26 03:13:00,
2017-02-26 03:19:00,48.6,45.9,29.52,SW,219,4.5,7.4,90,0.00,,,0.00,0.00,Weather logger V2.2.,2017-02-26 03:19:00,
2017-02-26 03:24:00,48.6,46.0,29.51,SW,233,4.9,7.4,91,0.00,,,0.00,0.00,Weather logger V2.2.,2017-02-26 03:24:00,
2017-02-26 03:29:00,48.7,46.2,29.51,SW,223,6.0,7.4,91,0.00,,,0.00,0.00,Weather logger V2.2.,2017-02-26 03:29:00,
2017-02-26 03:34:00,48.7,46.2,29.51,SSW,203,2.9,9.8,91,0.00,,,0.00,0.00,Weather logger V2.2.,2017-02-26 03:34:00,
2017-02-26 03:39:00,48.7,46.2,29.51,SW,216,5.1,7.4,91,0.00,,,0.00,0.00,Weather logger V2.2.,2017-02-26 03:39:00,
2017-02-26 03:44:00,48.7,46.2,29.50,SW,215,1.3,2.5,91,0.00,,,0.00,0.00,Weather logger V2.2.,2017-02-26 03:44:00,
2017-02-26 03:49:00,48.7,46.2,29.50,SW,214,1.1,2.5,91,0.00,,,0.00,0.00,Weather logger V2.2.,2017-02-26 03:49:00,
2017-02-26 03:54:00,48.7,46.2,29.50,South,172,4.5,7.4,91,0.00,,,0.00,0.00,Weather logger V2.2.,2017-02-26 03:54:00,
2017-02-26 03:59:00,48.7,46.2,29.50,SSW,204,2.9,4.9,91,0.00,,,0.00,0.00,Weather logger V2.2.,2017-02-26 03:59:00,
2017-02-26 04:04:00,48.7,46.2,29.49,SSW,202,4.5,7.4,91,0.00,,,0.00,0.00,Weather logger V2.2.,2017-02-26 04:04:00,
2017-02-26 04:09:00,48.9,46.4,29.49,SW,225,2.9,4.9,91,0.00,,,0.00,0.00,Weather logger V2.2.,2017-02-26 04:09:00,
2017-02-26 04:14:00,48.9,46.4,29.50,SSE,159,0.0,0.0,91,0.00,,,0.00,0.00,Weather logger V2.2.,2017-02-26 04:14:00,
2017-02-26 04:19:00,48.9,46.4,29.50,WSW,237,4.2,4.9,91,0.00,,,0.00,0.00,Weather logger V2.2.,2017-02-26 04:19:00,
2017-02-26 04:24:00,48.9,46.4,29.50,SSW,206,5.8,9.8,91,0.00,,,0.00,0.00,Weather logger V2.2.,2017-02-26 04:24:00,
2017-02-26 04:29:00,48.9,46.4,29.50,SSW,213,5.1,7.4,91,0.00,,,0.00,0.00,Weather logger V2.2.,2017-02-26 04:29:00,
2017-02-26 04:35:00,48.9,46.4,29.50,West,263,0.4,2.5,91,0.00,,,0.00,0.00,Weather logger V2.2.,2017-02-26 04:35:00,
2017-02-26 04:40:00,48.9,46.4,29.50,South,176,0.4,2.5,91,0.00,,,0.00,0.00,Weather logger V2.2.,2017-02-26 04:40:00,
2017-02-26 04:45:00,49.1,46.6,29.50,WSW,240,2.0,4.9,91,0.00,,,0.00,0.00,Weather logger V2.2.,2017-02-26 04:45:00,
2017-02-26 04:50:00,49.1,46.9,29.50,South,175,3.4,4.9,92,0.00,,,0.00,0.00,Weather logger V2.2.,2017-02-26 04:50:00,
2017-02-26 04:55:00,49.1,46.6,29.50,WSW,239,5.1,7.4,91,0.00,,,0.00,0.00,Weather logger V2.2.,2017-02-26 04:55:00,
2017-02-26 05:00:00,49.1,46.9,29.50,SSE,168,2.5,4.9,92,0.00,,,0.00,0.00,Weather logger V2.2.,2017-02-26 05:00:00,
2017-02-26 05:05:00,49.1,46.9,29.50,SW,214,3.6,4.9,92,0.00,,,0.00,0.00,Weather logger V2.2.,2017-02-26 05:05:00,
2017-02-26 05:10:00,49.1,47.1,29.49,SSW,209,5.8,7.4,93,0.00,,,0.00,0.00,Weather logger V2.2.,2017-02-26 05:10:00,
2017-02-26 05:15:00,49.1,47.1,29.49,WNW,283,4.0,7.4,93,0.00,,,0.00,0.00,Weather logger V2.2.,2017-02-26 05:15:00,
2017-02-26 05:20:00,49.1,47.1,29.49,WSW,240,2.0,4.9,93,0.00,,,0.00,0.00,Weather logger V2.2.,2017-02-26 05:20:00,
2017-02-26 05:25:00,49.1,47.1,29.50,SW,230,6.5,7.4,93,0.00,,,0.00,0.00,Weather logger V2.2.,2017-02-26 05:25:00,
2017-02-26 05:30:00,49.1,46.9,29.49,SSE,168,1.3,2.5,92,0.00,,,0.00,0.00,Weather logger V2.2.,2017-02-26 05:30:00,
2017-02-26 05:35:00,49.1,46.9,29.50,SW,222,0.2,2.5,92,0.00,,,0.00,0.00,Weather logger V2.2.,2017-02-26 05:35:00,
2017-02-26 05:40:00,49.1,46.9,29.50,SW,223,4.5,4.9,92,0.00,,,0.00,0.00,Weather logger V2.2.,2017-02-26 05:40:00,